Automatic Plant Watering & Monitor  

Temp Humidity Water % Time Seconds gap
38c 13 453 16:15:38 Wednesday 6th June 201888
25c 25 448 16:14:10 Wednesday 6th June 201873293 rebooted 2780
26c 11 417 19:52:37 Tuesday 5th June 20181006
27c 9 418 19:35:51 Tuesday 5th June 20181005
28c 8 417 19:19:06 Tuesday 5th June 20181004
33c 11 419 19:02:22 Tuesday 5th June 20181001
34c 11 421 18:45:41 Tuesday 5th June 20181005
34c 11 423 18:28:56 Tuesday 5th June 20181007
33c 11 423 18:12:09 Tuesday 5th June 20181007
34c 11 422 17:55:22 Tuesday 5th June 20181005
36c 13 422 17:38:37 Tuesday 5th June 20181004
36c 13 423 17:21:53 Tuesday 5th June 2018775171 rebooted 29775
31c 20 350 18:02:22 Sunday 27th May 20181069 rebooted 2
31c 19 348 17:44:33 Sunday 27th May 20181012
31c 16 351 17:27:41 Sunday 27th May 2018821
31c 18 349 17:14:00 Sunday 27th May 20181041 rebooted 1
31c 16 350 16:56:39 Sunday 27th May 20181142 rebooted 5
31c 15 347 16:37:37 Sunday 27th May 20181063 rebooted 2
31c 25 345 16:19:54 Sunday 27th May 20181244 rebooted 9
30c 19 337 15:59:10 Sunday 27th May 20181066 rebooted 2
31c 35 319 15:41:24 Sunday 27th May 20181019
32c 31 326 15:24:25 Sunday 27th May 20181001
36c 35 307 15:07:44 Sunday 27th May 20181031 rebooted 1
41c 51 315 14:50:33 Sunday 27th May 20181028 rebooted 1
34c 27 322 14:33:25 Sunday 27th May 20181008
37c 38 316 14:16:37 Sunday 27th May 20181019
35c 39 321 13:59:38 Sunday 27th May 20181033 rebooted 1
30c 33 326 13:42:25 Sunday 27th May 20181073 rebooted 2
30c 56 301 13:24:32 Sunday 27th May 2018241086 rebooted 9234
31c 19 428 18:26:26 Thursday 24th May 2018778265 rebooted 29894
29c 22 399 18:15:21 Tuesday 15th May 20181007
29c 20 399 17:58:34 Tuesday 15th May 20181005
29c 24 399 17:41:49 Tuesday 15th May 20181006
29c 21 399 17:25:03 Tuesday 15th May 20181006
29c 19 399 17:08:17 Tuesday 15th May 20181008
29c 20 399 16:51:29 Tuesday 15th May 20181005
29c 19 399 16:34:44 Tuesday 15th May 20181007
29c 19 399 16:17:57 Tuesday 15th May 20181007
28c 23 399 16:01:10 Tuesday 15th May 20181006
29c 25 399 15:44:24 Tuesday 15th May 20181006
30c 22 399 15:27:38 Tuesday 15th May 20181007
31c 23 399 15:10:51 Tuesday 15th May 20181005
32c 19 399 14:54:06 Tuesday 15th May 20181006
31c 18 399 14:37:20 Tuesday 15th May 20181007
31c 17 399 14:20:33 Tuesday 15th May 20181002
26c 37 399 14:03:51 Tuesday 15th May 201869842 rebooted 2647
28c 23 398 18:39:49 Monday 14th May 20181005
28c 21 398 18:23:04 Monday 14th May 20181007
29c 24 397 18:06:17 Monday 14th May 20181006
31c 19 398 17:49:31 Monday 14th May 2018988
31c 18 399 17:33:03 Monday 14th May 201881530 rebooted 3097
29c 39 395 18:54:13 Sunday 13th May 20181005
28c 45 395 18:37:28 Sunday 13th May 2018995
28c 41 383 18:20:53 Sunday 13th May 20181048 rebooted 1
30c 39 395 18:03:25 Sunday 13th May 2018986
29c 35 383 17:46:59 Sunday 13th May 20181968 rebooted 37
29c 39 396 17:14:11 Sunday 13th May 20181007
29c 39 396 16:57:24 Sunday 13th May 20181006
28c 39 396 16:40:38 Sunday 13th May 20181008
28c 44 396 16:23:50 Sunday 13th May 2018993
28c 42 383 16:07:17 Sunday 13th May 20181092 rebooted 3
28c 35 396 15:49:05 Sunday 13th May 20181010
29c 42 395 15:32:15 Sunday 13th May 2018993
29c 39 391 15:15:42 Sunday 13th May 2018249242 rebooted 9547
29c 42 390 18:01:40 Thursday 10th May 2018989
29c 40 379 17:45:11 Thursday 10th May 20181141 rebooted 5
29c 29 379 17:26:10 Thursday 10th May 20181280 rebooted 10
29c 31 389 17:04:50 Thursday 10th May 20181006
28c 32 390 16:48:04 Thursday 10th May 20181007
28c 30 389 16:31:17 Thursday 10th May 20181000
28c 27 382 16:14:37 Thursday 10th May 2018857
27c 28 389 16:00:20 Thursday 10th May 20181006
28c 27 389 15:43:34 Thursday 10th May 20181006
29c 29 388 15:26:48 Thursday 10th May 20181006
30c 28 390 15:10:02 Thursday 10th May 20181005
30c 33 387 14:53:17 Thursday 10th May 2018116
30c 33 383 14:51:21 Thursday 10th May 201834
28c 33 382 14:50:47 Thursday 10th May 2018303
28c 31 443 14:45:44 Thursday 10th May 20182266 rebooted 48
30c 28 449 14:07:58 Thursday 10th May 20181007
28c 30 448 13:51:11 Thursday 10th May 2018988
28c 29 439 13:34:43 Thursday 10th May 20181218 rebooted 8
26c 36 429 13:14:25 Thursday 10th May 20181085 rebooted 3
25c 38 428 12:56:20 Thursday 10th May 20181035 rebooted 1
25c 37 397 12:39:05 Thursday 10th May 20181020
25c 37 398 12:22:05 Thursday 10th May 20181074 rebooted 2
25c 36 398 12:04:11 Thursday 10th May 20181070 rebooted 2
26c 28 398 11:46:21 Thursday 10th May 20188243 rebooted 278
24c 35 419 09:28:58 Thursday 10th May 20181012
25c 41 419 09:12:06 Thursday 10th May 20181007
25c 39 419 08:55:19 Thursday 10th May 20181008
27c 37 419 08:38:31 Thursday 10th May 2018987
27c 36 402 08:22:04 Thursday 10th May 20181369 rebooted 14
25c 40 418 07:59:15 Thursday 10th May 20181006
25c 41 419 07:42:29 Thursday 10th May 20181007
25c 39 419 07:25:42 Thursday 10th May 20181006
27c 39 419 07:08:56 Thursday 10th May 2018986
27c 39 401 06:52:30 Thursday 10th May 20181381 rebooted 14
25c 41 419 06:29:29 Thursday 10th May 20181008
25c 38 418 06:12:41 Thursday 10th May 20181006
27c 43 419 05:55:55 Thursday 10th May 2018984
27c 32 400 05:39:31 Thursday 10th May 20181751 rebooted 28
25c 39 418 05:10:20 Thursday 10th May 20181003
23c 38 431 04:53:37 Thursday 10th May 20181056 rebooted 2
25c 41 430 04:36:01 Thursday 10th May 20181007
25c 38 431 04:19:14 Thursday 10th May 20181006
25c 38 431 04:02:28 Thursday 10th May 20181006
25c 38 430 03:45:42 Thursday 10th May 20181008
25c 38 430 03:28:54 Thursday 10th May 20181009
25c 38 430 03:12:05 Thursday 10th May 20181006
25c 38 430 02:55:19 Thursday 10th May 20181007
25c 37 430 02:38:32 Thursday 10th May 20181007
25c 38 429 02:21:45 Thursday 10th May 20181009
25c 42 431 02:04:56 Thursday 10th May 20181013
25c 40 430 01:48:03 Thursday 10th May 20181009
25c 45 430 01:31:14 Thursday 10th May 20181006
25c 37 430 01:14:28 Thursday 10th May 20181010
25c 40 430 00:57:38 Thursday 10th May 20181009
25c 42 430 00:40:49 Thursday 10th May 20181008
25c 39 430 00:24:01 Thursday 10th May 20181007
25c 49 430 00:07:14 Thursday 10th May 20181012
25c 47 430 23:50:22 Wednesday 9th May 20181008
25c 47 430 23:33:34 Wednesday 9th May 20181006
23c 39 430 23:16:48 Wednesday 9th May 20181006
25c 45 430 23:00:02 Wednesday 9th May 20181002
25c 43 430 22:43:20 Wednesday 9th May 20181057 rebooted 2
25c 43 428 22:25:43 Wednesday 9th May 20181006
25c 42 429 22:08:57 Wednesday 9th May 20181006
25c 41 425 21:52:11 Wednesday 9th May 20181007
25c 40 429 21:35:24 Wednesday 9th May 20181005
25c 38 418 21:18:39 Wednesday 9th May 20181006
25c 37 418 21:01:53 Wednesday 9th May 20181006
23c 36 417 20:45:07 Wednesday 9th May 20181006
24c 34 417 20:28:21 Wednesday 9th May 20181005
24c 31 416 20:11:36 Wednesday 9th May 20181005
25c 30 417 19:54:51 Wednesday 9th May 20181006
26c 29 418 19:38:05 Wednesday 9th May 20181006
29c 30 419 19:21:19 Wednesday 9th May 20181004
29c 30 443 19:04:35 Wednesday 9th May 20181005
29c 28 443 18:47:50 Wednesday 9th May 20181007
29c 26 443 18:31:03 Wednesday 9th May 20181002
29c 28 444 18:14:21 Wednesday 9th May 20181055 rebooted 2
29c 29 419 17:56:46 Wednesday 9th May 2018396
30c 29 441 17:50:10 Wednesday 9th May 20181006
30c 31 441 17:33:24 Wednesday 9th May 20181006
29c 28 442 17:16:38 Wednesday 9th May 20181006
30c 32 442 16:59:52 Wednesday 9th May 20181005
30c 30 441 16:43:07 Wednesday 9th May 2018379
30c 30 441 16:36:48 Wednesday 9th May 20181004
30c 31 441 16:20:04 Wednesday 9th May 201846
29c 29 439 16:19:18 Wednesday 9th May 20181006
29c 29 438 16:02:32 Wednesday 9th May 20181007
29c 29 433 15:45:45 Wednesday 9th May 20181006
29c 27 434 15:28:59 Wednesday 9th May 20181006
30c 24 433 15:12:13 Wednesday 9th May 20181007
31c 22 433 14:55:26 Wednesday 9th May 20181005
31c 21 433 14:38:41 Wednesday 9th May 20181002
31c 21 433 14:21:59 Wednesday 9th May 20181057 rebooted 2
33c 14 432 14:04:22 Wednesday 9th May 2018984
33c 14 409 13:47:58 Wednesday 9th May 20183132 rebooted 81
27c 29 399 12:55:46 Wednesday 9th May 201817021 rebooted 616
25c 38 387 08:12:05 Wednesday 9th May 20181237 rebooted 9
25c 38 383 07:51:28 Wednesday 9th May 20181190 rebooted 7
26c 38 387 07:31:38 Wednesday 9th May 20181329 rebooted 12
26c 39 383 07:09:29 Wednesday 9th May 20181339 rebooted 13
24c 30 391 06:47:10 Wednesday 9th May 20181295 rebooted 11
26c 35 387 06:25:35 Wednesday 9th May 20181324 rebooted 12
24c 32 387 06:03:31 Wednesday 9th May 20181317 rebooted 12
26c 34 383 05:41:34 Wednesday 9th May 20181367 rebooted 14
26c 35 387 05:18:47 Wednesday 9th May 20181393 rebooted 15
23c 38 411 04:55:34 Wednesday 9th May 20181005
23c 35 411 04:38:49 Wednesday 9th May 20181006
23c 33 411 04:22:03 Wednesday 9th May 20181006
23c 34 410 04:05:17 Wednesday 9th May 20181006
23c 35 411 03:48:31 Wednesday 9th May 20181002
23c 34 411 03:31:49 Wednesday 9th May 20181057 rebooted 2
23c 33 411 03:14:12 Wednesday 9th May 20181006
23c 33 411 02:57:26 Wednesday 9th May 20181006
25c 37 411 02:40:40 Wednesday 9th May 20181006
24c 33 411 02:23:54 Wednesday 9th May 20181006
24c 31 411 02:07:08 Wednesday 9th May 20181005
24c 30 411 01:50:23 Wednesday 9th May 20181006
24c 31 411 01:33:37 Wednesday 9th May 20181006
24c 31 411 01:16:51 Wednesday 9th May 20181005
26c 33 411 01:00:06 Wednesday 9th May 20181006
26c 34 411 00:43:20 Wednesday 9th May 20181002
26c 35 412 00:26:38 Wednesday 9th May 20181057 rebooted 2
27c 33 412 00:09:01 Wednesday 9th May 20181005
26c 31 412 23:52:16 Tuesday 8th May 20181006
26c 30 413 23:35:30 Tuesday 8th May 20181002
26c 30 414 23:18:48 Tuesday 8th May 20181057 rebooted 2
27c 28 413 23:01:11 Tuesday 8th May 20181006
27c 26 414 22:44:25 Tuesday 8th May 20181000
27c 26 415 22:27:45 Tuesday 8th May 2018646
25c 26 411 22:16:59 Tuesday 8th May 20181006
23c 30 411 22:00:13 Tuesday 8th May 20181007
25c 36 410 21:43:26 Tuesday 8th May 20181007
24c 31 403 21:26:39 Tuesday 8th May 20181008
26c 21 403 21:09:51 Tuesday 8th May 2018984
26c 21 383 20:53:27 Tuesday 8th May 20181653 rebooted 25